createdAt,value
2022-11-09T00:01:32.742Z,12.80
2022-11-09T00:04:04.573Z,12.78
2022-11-09T00:06:38.495Z,12.78
2022-11-09T00:09:11.680Z,12.78
2022-11-09T00:11:41.475Z,12.80
2022-11-09T00:14:17.446Z,12.80
2022-11-09T00:16:47.190Z,12.80
2022-11-09T00:19:16.986Z,12.81
2022-11-09T00:21:49.344Z,12.82
2022-11-09T00:24:19.303Z,12.81
2022-11-09T00:26:49.549Z,12.82
2022-11-09T00:29:19.335Z,12.84
2022-11-09T00:31:49.895Z,12.86
2022-11-09T00:34:21.061Z,12.86
2022-11-09T00:36:53.429Z,12.88
2022-11-09T00:39:23.266Z,12.89
2022-11-09T00:41:53.035Z,12.91
2022-11-09T00:44:22.783Z,12.93
2022-11-09T00:46:52.550Z,12.93
2022-11-09T00:49:22.299Z,12.94
2022-11-09T00:51:54.770Z,12.94
2022-11-09T00:54:24.546Z,12.94
2022-11-09T00:56:54.331Z,12.95
2022-11-09T00:59:24.095Z,12.95
2022-11-09T01:01:53.851Z,12.96
2022-11-09T01:04:24.138Z,12.96
2022-11-09T01:06:56.554Z,12.96
2022-11-09T01:09:26.424Z,12.96
2022-11-09T01:11:56.385Z,12.96
2022-11-09T01:14:27.494Z,12.99
2022-11-09T01:16:57.286Z,12.99
2022-11-09T01:19:28.251Z,12.99
2022-11-09T01:22:00.792Z,13.00
2022-11-09T01:24:30.605Z,12.99
2022-11-09T01:27:00.363Z,12.99
2022-11-09T01:29:30.346Z,12.99
2022-11-09T01:32:00.156Z,12.99
2022-11-09T01:34:31.271Z,12.99
2022-11-09T01:37:03.680Z,12.96
2022-11-09T01:39:33.451Z,12.95
2022-11-09T01:42:03.197Z,12.95
2022-11-09T01:44:33.894Z,12.96
2022-11-09T01:47:07.292Z,12.96
2022-11-09T01:49:43.742Z,12.96
2022-11-09T01:52:20.853Z,12.97
2022-11-09T01:54:54.004Z,12.98
2022-11-09T01:57:29.266Z,12.98
2022-11-09T02:00:03.655Z,13.02
2022-11-09T02:02:33.435Z,13.03
2022-11-09T02:05:06.343Z,13.06
2022-11-09T02:07:40.454Z,13.07
2022-11-09T02:10:15.424Z,13.09
2022-11-09T02:12:46.275Z,13.11
2022-11-09T02:15:16.622Z,13.12
2022-11-09T02:17:48.083Z,13.12
2022-11-09T02:20:21.660Z,13.13
2022-11-09T02:22:51.598Z,13.14
2022-11-09T02:25:21.681Z,13.15
2022-11-09T02:27:52.735Z,13.15
2022-11-09T02:30:25.194Z,13.14
2022-11-09T02:32:54.933Z,13.15
2022-11-09T02:35:27.287Z,13.14
2022-11-09T02:37:57.108Z,13.13
2022-11-09T02:40:32.986Z,13.12
2022-11-09T02:43:03.714Z,13.11
2022-11-09T02:45:33.619Z,13.09
2022-11-09T02:48:03.443Z,13.07
2022-11-09T02:50:37.159Z,13.06
2022-11-09T02:53:07.236Z,13.06
2022-11-09T02:55:37.025Z,13.06
2022-11-09T02:58:06.803Z,13.05
2022-11-09T03:00:36.576Z,13.05
2022-11-09T03:03:07.167Z,13.03
2022-11-09T03:05:39.541Z,13.02
2022-11-09T03:08:09.291Z,13.01
2022-11-09T03:10:39.101Z,12.98
2022-11-09T03:13:08.842Z,12.98
2022-11-09T03:15:38.641Z,12.98
2022-11-09T03:18:08.499Z,12.98
2022-11-09T03:20:40.831Z,12.94
2022-11-09T03:23:11.153Z,12.91
2022-11-09T03:25:41.024Z,12.89
2022-11-09T03:28:11.275Z,12.87
2022-11-09T03:30:41.013Z,12.84
2022-11-09T03:33:12.812Z,12.84
2022-11-09T03:35:45.159Z,12.84
2022-11-09T03:38:14.900Z,12.82
2022-11-09T03:40:44.624Z,12.80
2022-11-09T03:43:14.355Z,12.80
2022-11-09T03:45:44.307Z,12.80
2022-11-09T03:48:14.018Z,12.78
2022-11-09T03:50:46.336Z,12.79
2022-11-09T03:53:16.855Z,12.77
2022-11-09T03:55:46.761Z,12.78
2022-11-09T03:58:16.500Z,12.78
2022-11-09T04:00:46.268Z,12.77
2022-11-09T04:03:16.002Z,12.76
2022-11-09T04:05:48.331Z,12.75
2022-11-09T04:08:18.043Z,12.74
2022-11-09T04:10:47.892Z,12.73
2022-11-09T04:13:18.006Z,12.70
2022-11-09T04:15:48.552Z,12.69
2022-11-09T04:18:20.228Z,12.67
2022-11-09T04:20:52.664Z,12.66
2022-11-09T04:23:22.666Z,12.65
2022-11-09T04:25:52.556Z,12.63
2022-11-09T04:28:22.427Z,12.62
2022-11-09T04:30:52.154Z,12.61
2022-11-09T04:33:23.144Z,12.59
2022-11-09T04:35:55.647Z,12.59
2022-11-09T04:38:25.568Z,12.58
2022-11-09T04:40:55.277Z,12.56
2022-11-09T04:43:25.038Z,12.56
2022-11-09T04:45:55.024Z,12.56
2022-11-09T04:48:24.852Z,12.56
2022-11-09T04:51:02.125Z,12.56
2022-11-09T04:53:32.126Z,12.55
2022-11-09T04:56:02.021Z,12.55
2022-11-09T04:58:31.840Z,12.55
2022-11-09T05:01:05.800Z,12.54
2022-11-09T05:03:35.606Z,12.54
2022-11-09T05:06:28.210Z,12.54
2022-11-09T05:08:58.790Z,12.54
2022-11-09T05:11:28.669Z,12.55
2022-11-09T05:13:58.424Z,12.55
2022-11-09T05:16:28.508Z,12.56
2022-11-09T05:18:58.372Z,12.56
2022-11-09T05:21:30.748Z,12.55
2022-11-09T05:24:00.993Z,12.54
2022-11-09T05:26:33.953Z,12.54
2022-11-09T05:29:05.645Z,12.54
2022-11-09T05:31:35.833Z,12.52
2022-11-09T05:34:06.772Z,12.52
2022-11-09T05:36:39.067Z,12.53
2022-11-09T05:39:08.948Z,12.52
2022-11-09T05:41:38.687Z,12.52
2022-11-09T05:44:09.590Z,12.51
2022-11-09T05:46:39.302Z,12.49
2022-11-09T05:49:09.008Z,12.50
2022-11-09T05:51:41.315Z,12.49
2022-11-09T05:54:11.519Z,12.47
2022-11-09T05:56:41.229Z,12.46
2022-11-09T05:59:11.834Z,12.47
2022-11-09T06:01:41.643Z,12.46
2022-11-09T06:04:11.449Z,12.44
2022-11-09T06:06:43.912Z,12.43
2022-11-09T06:09:13.676Z,12.43
2022-11-09T06:11:43.412Z,12.43
2022-11-09T06:14:13.163Z,12.42
2022-11-09T06:16:42.923Z,12.42
2022-11-09T06:19:12.892Z,12.42
2022-11-09T06:21:45.302Z,12.42
2022-11-09T06:24:15.120Z,12.41
2022-11-09T06:26:44.904Z,12.40
2022-11-09T06:29:14.628Z,12.39
2022-11-09T06:31:44.431Z,12.38
2022-11-09T06:34:14.141Z,12.39
2022-11-09T06:36:46.818Z,12.39
2022-11-09T06:39:16.551Z,12.37
2022-11-09T06:41:47.771Z,12.36
2022-11-09T06:44:17.676Z,12.35
2022-11-09T06:46:47.904Z,12.34
2022-11-09T06:49:17.648Z,12.34
2022-11-09T06:51:49.985Z,12.34
2022-11-09T06:54:19.724Z,12.32
2022-11-09T06:56:49.444Z,12.31
2022-11-09T06:59:19.146Z,12.31
2022-11-09T07:01:49.040Z,12.30
2022-11-09T07:04:18.888Z,12.31
2022-11-09T07:06:51.306Z,12.30
2022-11-09T07:09:21.089Z,12.30
2022-11-09T07:11:51.778Z,12.28
2022-11-09T07:14:21.848Z,12.29
2022-11-09T07:16:51.648Z,12.28
2022-11-09T07:19:22.639Z,12.27
2022-11-09T07:21:55.018Z,12.27
2022-11-09T07:24:25.455Z,12.27
2022-11-09T07:26:55.168Z,12.27
2022-11-09T07:29:24.930Z,12.28
2022-11-09T07:31:54.711Z,12.29
2022-11-09T07:34:24.496Z,12.31
2022-11-09T07:36:58.981Z,12.31
2022-11-09T07:39:28.696Z,12.31
2022-11-09T07:41:58.468Z,12.33
2022-11-09T07:44:28.355Z,12.34
2022-11-09T07:46:58.129Z,12.36
2022-11-09T07:49:27.867Z,12.37
2022-11-09T07:52:00.151Z,12.39
2022-11-09T07:54:29.881Z,12.39
2022-11-09T07:56:59.588Z,12.40
2022-11-09T07:59:29.283Z,12.41
2022-11-09T08:01:59.282Z,12.42
2022-11-09T08:04:29.090Z,12.44
2022-11-09T08:07:01.514Z,12.45
2022-11-09T08:09:31.622Z,12.46
2022-11-09T08:12:01.360Z,12.52
2022-11-09T08:14:31.108Z,12.56
2022-11-09T08:17:00.869Z,12.62
2022-11-09T08:19:30.574Z,12.64
2022-11-09T08:22:02.958Z,12.67
2022-11-09T08:24:32.815Z,12.72
2022-11-09T08:27:02.526Z,12.77
2022-11-09T08:29:32.296Z,12.80
2022-11-09T08:32:02.015Z,12.81
2022-11-09T08:34:31.767Z,12.80
2022-11-09T08:37:05.580Z,12.79
2022-11-09T08:39:35.331Z,12.81
2022-11-09T08:42:05.081Z,12.81
2022-11-09T08:44:34.822Z,12.81
2022-11-09T08:47:04.554Z,12.81
2022-11-09T08:49:34.950Z,12.82
2022-11-09T08:52:07.771Z,12.84
2022-11-09T08:54:40.167Z,12.85
2022-11-09T08:57:09.892Z,12.87
2022-11-09T08:59:39.779Z,12.91
2022-11-09T09:02:09.923Z,12.92
2022-11-09T09:04:39.711Z,12.94
2022-11-09T09:07:12.303Z,12.97
2022-11-09T09:09:42.539Z,12.98
2022-11-09T09:12:13.074Z,12.97
2022-11-09T09:14:42.775Z,12.99
2022-11-09T09:17:12.480Z,13.01
2022-11-09T09:19:45.977Z,13.04
2022-11-09T09:22:21.467Z,13.05
2022-11-09T09:24:51.212Z,13.07
2022-11-09T09:27:22.814Z,13.10
2022-11-09T09:29:52.575Z,13.13
2022-11-09T09:32:22.879Z,13.15
2022-11-09T09:34:52.585Z,13.17
2022-11-09T09:37:24.921Z,13.23
2022-11-09T09:39:54.806Z,13.26
2022-11-09T09:42:32.412Z,13.30
2022-11-09T09:45:05.454Z,13.34
2022-11-09T09:47:47.908Z,13.38
2022-11-09T09:50:21.765Z,13.41
2022-11-09T09:53:22.829Z,13.46
2022-11-09T09:55:53.987Z,13.46
2022-11-09T09:58:28.603Z,13.54
2022-11-09T10:01:01.294Z,13.58
2022-11-09T10:03:31.092Z,13.63
2022-11-09T10:06:07.949Z,13.68
2022-11-09T10:08:55.419Z,13.69
2022-11-09T10:11:36.713Z,13.70
2022-11-09T10:14:41.614Z,13.73
2022-11-09T10:17:20.445Z,13.75
2022-11-09T10:20:00.443Z,13.78
2022-11-09T10:22:39.943Z,13.80
2022-11-09T10:25:32.068Z,13.83
2022-11-09T10:28:06.346Z,13.86
2022-11-09T10:30:38.040Z,13.89
2022-11-09T10:33:18.468Z,13.90
2022-11-09T10:35:52.670Z,13.93
2022-11-09T10:38:27.734Z,13.98
2022-11-09T10:41:05.019Z,14.03
2022-11-09T10:43:34.793Z,14.05
2022-11-09T10:46:06.379Z,14.11
2022-11-09T10:48:38.590Z,14.14
2022-11-09T10:51:29.436Z,14.19
2022-11-09T10:54:18.479Z,14.24
2022-11-09T10:57:05.715Z,14.26
2022-11-09T10:59:46.717Z,14.31
2022-11-09T11:02:46.976Z,14.29
2022-11-09T11:05:32.088Z,14.26
2022-11-09T11:08:14.280Z,14.23
2022-11-09T11:10:44.032Z,14.19
2022-11-09T11:13:28.602Z,14.18
2022-11-09T11:15:58.373Z,14.14
2022-11-09T11:18:29.613Z,14.14
2022-11-09T11:21:19.413Z,14.15
2022-11-09T11:24:11.777Z,14.14
2022-11-09T11:26:45.951Z,14.13
2022-11-09T11:29:36.695Z,14.12
2022-11-09T11:32:06.712Z,14.09
2022-11-09T11:34:59.227Z,14.06
2022-11-09T11:37:42.007Z,14.08
2022-11-09T11:40:19.876Z,14.10
2022-11-09T11:43:15.026Z,14.11
2022-11-09T11:45:56.610Z,14.11
2022-11-09T11:48:51.147Z,14.08
2022-11-09T11:51:22.672Z,14.04
2022-11-09T11:54:07.057Z,14.05
2022-11-09T11:56:43.316Z,14.01
2022-11-09T11:59:37.185Z,14.01
2022-11-09T12:02:31.825Z,14.01
2022-11-09T12:05:34.036Z,14.02
2022-11-09T12:08:11.767Z,14.02
2022-11-09T12:10:53.681Z,14.05
2022-11-09T12:13:47.006Z,14.06
2022-11-09T12:16:25.368Z,14.07
2022-11-09T12:19:08.714Z,14.06
2022-11-09T12:21:47.049Z,14.07
2022-11-09T12:24:25.107Z,14.10
2022-11-09T12:27:31.023Z,14.13
2022-11-09T12:30:06.278Z,14.13
2022-11-09T12:32:46.567Z,14.11
2022-11-09T12:35:29.561Z,14.10
2022-11-09T12:38:08.607Z,14.10
2022-11-09T12:40:42.062Z,14.09
2022-11-09T12:43:20.010Z,14.08
2022-11-09T12:45:52.284Z,14.06
2022-11-09T12:48:29.229Z,14.04
2022-11-09T12:51:03.081Z,14.00
2022-11-09T12:53:36.685Z,14.00
2022-11-09T12:56:11.432Z,13.97
2022-11-09T12:58:42.332Z,13.93
2022-11-09T13:01:15.559Z,13.83
2022-11-09T13:03:57.307Z,13.73
2022-11-09T13:06:31.605Z,13.60
2022-11-09T13:09:05.233Z,13.48
2022-11-09T13:11:41.817Z,13.34
2022-11-09T13:14:30.521Z,13.15
2022-11-09T13:17:01.776Z,12.99
2022-11-09T13:19:54.376Z,12.87
2022-11-09T13:22:54.083Z,12.74
2022-11-09T13:25:53.133Z,12.62
2022-11-09T13:28:47.856Z,12.49
2022-11-09T13:31:52.542Z,12.44
2022-11-09T13:34:47.528Z,12.40
2022-11-09T13:37:39.495Z,12.37
2022-11-09T13:40:39.203Z,12.39
2022-11-09T13:43:22.102Z,12.42
2022-11-09T13:45:54.807Z,12.45
2022-11-09T13:48:37.827Z,12.52
2022-11-09T13:51:10.788Z,12.58
2022-11-09T13:53:56.952Z,12.65
2022-11-09T13:56:35.365Z,12.69
2022-11-09T13:59:17.133Z,12.71
2022-11-09T14:01:53.027Z,12.75
2022-11-09T14:04:29.290Z,12.76
2022-11-09T14:07:05.600Z,12.79
2022-11-09T14:09:45.986Z,12.81
2022-11-09T14:12:42.072Z,12.82
2022-11-09T14:15:26.715Z,12.82
2022-11-09T14:18:08.777Z,12.84
2022-11-09T14:20:43.751Z,12.85
2022-11-09T14:23:21.959Z,12.84
2022-11-09T14:25:51.967Z,12.81
2022-11-09T14:28:26.465Z,12.78
2022-11-09T14:30:59.609Z,12.76
2022-11-09T14:33:34.216Z,12.74
2022-11-09T14:36:05.703Z,12.70
2022-11-09T14:38:38.507Z,12.69
2022-11-09T14:41:08.741Z,12.67
2022-11-09T14:43:43.262Z,12.69
2022-11-09T14:46:21.384Z,12.67
2022-11-09T14:48:54.747Z,12.68
2022-11-09T14:51:33.967Z,12.66
2022-11-09T14:54:05.503Z,12.64
2022-11-09T14:56:36.204Z,12.60
2022-11-09T14:59:08.650Z,12.58
2022-11-09T15:01:41.022Z,12.54
2022-11-09T15:04:17.082Z,12.52
2022-11-09T15:06:54.039Z,12.53
2022-11-09T15:09:27.032Z,12.53
2022-11-09T15:11:57.475Z,12.52
2022-11-09T15:14:30.924Z,12.53
2022-11-09T15:17:08.807Z,12.53
2022-11-09T15:19:41.784Z,12.52
2022-11-09T15:22:50.361Z,12.54
2022-11-09T15:25:39.100Z,12.52
2022-11-09T15:28:25.640Z,12.52
2022-11-09T15:31:16.417Z,12.52
2022-11-09T15:33:59.565Z,12.49
2022-11-09T15:36:33.279Z,12.48
2022-11-09T15:39:09.229Z,12.47
2022-11-09T15:41:40.395Z,12.45
2022-11-09T15:44:10.383Z,12.44
2022-11-09T15:46:44.776Z,12.44
2022-11-09T15:49:23.959Z,12.43
2022-11-09T15:51:54.245Z,12.42
2022-11-09T15:54:25.309Z,12.44
2022-11-09T15:56:55.199Z,12.45
2022-11-09T15:59:26.675Z,12.46
2022-11-09T16:01:56.428Z,12.46
2022-11-09T16:04:28.769Z,12.47
2022-11-09T16:06:58.555Z,12.47
2022-11-09T16:09:28.707Z,12.48
2022-11-09T16:11:58.596Z,12.46
2022-11-09T16:14:28.449Z,12.44
2022-11-09T16:16:58.197Z,12.41
2022-11-09T16:19:30.653Z,12.39
2022-11-09T16:22:02.337Z,12.38
2022-11-09T16:24:32.275Z,12.36
2022-11-09T16:27:02.072Z,12.34
2022-11-09T16:29:33.267Z,12.31
2022-11-09T16:32:03.792Z,12.29
2022-11-09T16:34:36.112Z,12.29
2022-11-09T16:37:06.745Z,12.30
2022-11-09T16:39:38.765Z,12.30
2022-11-09T16:42:12.668Z,12.30
2022-11-09T16:44:45.870Z,12.30
2022-11-09T16:47:19.205Z,12.30
2022-11-09T16:49:51.689Z,12.32
2022-11-09T16:52:23.340Z,12.31
2022-11-09T16:54:53.048Z,12.34
2022-11-09T16:57:22.739Z,12.33
2022-11-09T16:59:52.492Z,12.35
2022-11-09T17:02:22.277Z,12.35
2022-11-09T17:04:54.654Z,12.37
2022-11-09T17:07:24.573Z,12.36
2022-11-09T17:09:54.295Z,12.37
2022-11-09T17:12:24.309Z,12.37
2022-11-09T17:14:53.998Z,12.37
2022-11-09T17:17:23.690Z,12.37
2022-11-09T17:19:56.013Z,12.36
2022-11-09T17:22:25.728Z,12.34
2022-11-09T17:24:55.452Z,12.33
2022-11-09T17:27:25.242Z,12.31
2022-11-09T17:29:54.963Z,12.30
2022-11-09T17:32:27.454Z,12.31
2022-11-09T17:34:59.800Z,12.31
2022-11-09T17:37:29.598Z,12.32
2022-11-09T17:39:59.347Z,12.30
2022-11-09T17:42:29.316Z,12.31
2022-11-09T17:44:59.014Z,12.30
2022-11-09T17:47:28.803Z,12.29
2022-11-09T17:50:01.142Z,12.29
2022-11-09T17:52:30.975Z,12.27
2022-11-09T17:55:00.700Z,12.23
2022-11-09T17:57:30.408Z,12.17
2022-11-09T18:00:00.112Z,12.11
2022-11-09T18:02:29.844Z,12.07
2022-11-09T18:05:02.158Z,12.05
2022-11-09T18:07:32.538Z,12.03
2022-11-09T18:10:02.251Z,11.99
2022-11-09T18:12:32.035Z,11.99
2022-11-09T18:15:02.016Z,12.00
2022-11-09T18:17:31.735Z,12.03
2022-11-09T18:20:04.228Z,12.05
2022-11-09T18:22:34.095Z,12.05
2022-11-09T18:25:03.899Z,12.07
2022-11-09T18:27:33.615Z,12.08
2022-11-09T18:30:03.849Z,12.09
2022-11-09T18:32:33.719Z,12.15
2022-11-09T18:35:06.418Z,12.19
2022-11-09T18:37:36.737Z,12.21
2022-11-09T18:40:06.962Z,12.22
2022-11-09T18:42:36.903Z,12.24
2022-11-09T18:45:07.122Z,12.27
2022-11-09T18:47:36.869Z,12.28
2022-11-09T18:50:10.304Z,12.29
2022-11-09T18:52:40.049Z,12.29
2022-11-09T18:55:10.728Z,12.28
2022-11-09T18:57:40.476Z,12.27
2022-11-09T19:00:12.074Z,12.26
2022-11-09T19:02:41.903Z,12.23
2022-11-09T19:05:14.415Z,12.21
2022-11-09T19:07:44.133Z,12.19
2022-11-09T19:10:13.832Z,12.16
2022-11-09T19:12:43.535Z,12.13
2022-11-09T19:15:14.204Z,12.12
2022-11-09T19:17:43.904Z,12.10
2022-11-09T19:20:16.486Z,12.07
2022-11-09T19:22:46.235Z,12.04
2022-11-09T19:25:16.007Z,12.00
2022-11-09T19:27:45.730Z,11.97
2022-11-09T19:30:15.875Z,11.92
2022-11-09T19:32:47.717Z,11.88
2022-11-09T19:35:25.548Z,11.86
2022-11-09T19:37:56.220Z,11.81
2022-11-09T19:40:26.072Z,11.79
2022-11-09T19:42:55.849Z,11.76
2022-11-09T19:45:25.649Z,11.74
2022-11-09T19:47:55.408Z,11.74
2022-11-09T19:50:27.745Z,11.74
2022-11-09T19:52:59.980Z,11.73
2022-11-09T19:55:29.856Z,11.72
2022-11-09T19:57:59.572Z,11.70
2022-11-09T20:00:30.749Z,11.67
2022-11-09T20:03:00.795Z,11.68
2022-11-09T20:05:36.295Z,11.66
2022-11-09T20:08:06.729Z,11.66
2022-11-09T20:10:39.374Z,11.65
2022-11-09T20:13:06.461Z,11.64
2022-11-09T20:15:36.510Z,11.64
2022-11-09T20:18:06.566Z,11.63
2022-11-09T20:20:39.080Z,11.65
2022-11-09T20:23:09.082Z,11.67
2022-11-09T20:25:38.838Z,11.69
2022-11-09T20:28:08.580Z,11.74
2022-11-09T20:30:41.355Z,11.78
2022-11-09T20:33:12.039Z,11.79
2022-11-09T20:35:46.797Z,11.82
2022-11-09T20:38:16.728Z,11.86
2022-11-09T20:40:46.537Z,11.89
2022-11-09T20:43:16.244Z,11.90
2022-11-09T20:45:45.979Z,11.91
2022-11-09T20:48:46.617Z,11.94
2022-11-09T20:51:10.021Z,11.97
2022-11-09T20:53:39.904Z,11.99
2022-11-09T20:56:10.213Z,12.02
2022-11-09T20:58:39.944Z,12.07
2022-11-09T21:01:11.627Z,12.10
2022-11-09T21:03:41.456Z,12.11
2022-11-09T21:06:15.591Z,12.12
2022-11-09T21:08:47.806Z,12.13
2022-11-09T21:11:17.590Z,12.15
2022-11-09T21:13:51.635Z,12.18
2022-11-09T21:16:23.413Z,12.18
2022-11-09T21:18:53.148Z,12.18
2022-11-09T21:21:29.771Z,12.17
2022-11-09T21:24:14.272Z,12.16
2022-11-09T21:26:56.373Z,12.15
2022-11-09T21:29:39.953Z,12.16
2022-11-09T21:32:11.135Z,12.12
2022-11-09T21:34:41.156Z,12.10
2022-11-09T21:37:18.913Z,12.10
2022-11-09T21:39:51.480Z,12.11
2022-11-09T21:42:21.216Z,12.10
2022-11-09T21:44:50.913Z,12.09
2022-11-09T21:47:20.776Z,12.06
2022-11-09T21:49:50.537Z,12.06
2022-11-09T21:52:23.445Z,12.03
2022-11-09T21:54:53.143Z,11.99
2022-11-09T21:57:22.859Z,11.98
2022-11-09T21:59:52.539Z,11.95
2022-11-09T22:02:22.251Z,11.90
2022-11-09T22:04:51.971Z,11.87
2022-11-09T22:07:24.309Z,11.82
2022-11-09T22:10:11.062Z,11.78
2022-11-09T22:12:53.558Z,11.75
2022-11-09T22:15:35.676Z,11.71
2022-11-09T22:18:06.049Z,11.66
2022-11-09T22:20:48.160Z,11.60
2022-11-09T22:23:20.796Z,11.57
2022-11-09T22:25:50.745Z,11.52
2022-11-09T22:28:20.452Z,11.48
2022-11-09T22:30:50.157Z,11.49
2022-11-09T22:33:25.886Z,11.46
2022-11-09T22:35:57.590Z,11.47
2022-11-09T22:38:30.124Z,11.48
2022-11-09T22:41:02.812Z,11.46
2022-11-09T22:43:35.697Z,11.44
2022-11-09T22:46:07.003Z,11.41
2022-11-09T22:48:37.643Z,11.38
2022-11-09T22:51:08.181Z,11.32
2022-11-09T22:53:40.551Z,11.28
2022-11-09T22:56:12.432Z,11.22
2022-11-09T22:58:42.175Z,11.17
2022-11-09T23:01:15.503Z,11.15
2022-11-09T23:03:45.678Z,11.16
2022-11-09T23:06:19.314Z,11.19
2022-11-09T23:08:51.974Z,11.23
2022-11-09T23:11:23.457Z,11.26
2022-11-09T23:13:54.832Z,11.31
2022-11-09T23:16:25.995Z,11.34
2022-11-09T23:18:56.103Z,11.36
2022-11-09T23:21:28.147Z,11.38
2022-11-09T23:24:03.061Z,11.43
2022-11-09T23:26:30.869Z,11.45
2022-11-09T23:29:00.738Z,11.49
2022-11-09T23:31:30.800Z,11.52
2022-11-09T23:34:03.612Z,11.55
2022-11-09T23:36:35.672Z,11.56
2022-11-09T23:39:07.976Z,11.57
2022-11-09T23:41:37.691Z,11.57
2022-11-09T23:44:07.432Z,11.57
2022-11-09T23:46:37.184Z,11.56
2022-11-09T23:49:07.036Z,11.55
2022-11-09T23:51:36.745Z,11.52
2022-11-09T23:54:09.426Z,11.52
2022-11-09T23:56:39.116Z,11.49
2022-11-09T23:59:08.935Z,11.46
